Time;durP1;ratioP1;P1;durP2;ratioP2;P2;SDS_P1;SDS_P2;PMS_P1;PMS_P2;Temp;Humidity;BMP_temperature;BMP_pressure;BME280_temperature;BME280_humidity;BME280_pressure;Samples;Min_cycle;Max_cycle;Signal;HPM_P1;HPM_P2
2021/09/25 00:03:43;;;;;;;2.97;1.60;;;29.30;45.20;;;;;;5074473;28;20456;-38
2021/09/25 00:06:18;;;;;;;1.40;1.30;;;29.20;47.00;;;;;;5062695;28;20521;-37
2021/09/25 00:08:49;;;;;;;2.83;1.67;;;29.20;46.60;;;;;;5062183;28;20523;-38
2021/09/25 00:11:20;;;;;;;1.50;1.27;;;29.10;45.50;;;;;;5062053;28;20478;-38
2021/09/25 00:13:51;;;;;;;2.23;1.70;;;29.00;48.40;;;;;;5077368;28;20460;-41
2021/09/25 00:16:26;;;;;;;1.90;1.10;;;28.90;46.50;;;;;;5072825;28;20510;-39
2021/09/25 00:18:59;;;;;;;1.77;1.63;;;28.80;46.60;;;;;;5074294;28;20454;-39
2021/09/25 00:21:30;;;;;;;3.07;1.60;;;28.70;46.10;;;;;;5084176;28;20451;-38
2021/09/25 00:24:01;;;;;;;1.40;1.30;;;28.70;49.90;;;;;;5085133;28;20491;-41
2021/09/25 00:26:32;;;;;;;4.00;1.83;;;28.70;47.20;;;;;;5085531;28;20487;-38
2021/09/25 00:29:02;;;;;;;1.50;1.40;;;28.50;47.80;;;;;;5069690;28;20488;-40
2021/09/25 00:31:35;;;;;;;2.17;1.67;;;28.50;45.90;;;;;;5084099;28;20528;-38
2021/09/25 00:34:06;;;;;;;3.70;1.80;;;28.50;50.30;;;;;;5079545;28;20459;-39
2021/09/25 00:36:37;;;;;;;1.60;1.50;;;28.40;46.30;;;;;;5085957;28;20461;-43
2021/09/25 00:39:08;;;;;;;1.60;1.50;;;28.30;47.80;;;;;;5085310;28;20475;-38
2021/09/25 00:41:39;;;;;;;2.90;1.40;;;28.20;49.00;;;;;;5084801;28;20455;-38
2021/09/25 00:44:10;;;;;;;1.73;1.27;;;28.10;49.50;;;;;;5085849;28;20488;-40
2021/09/25 00:46:43;;;;;;;1.70;1.60;;;28.00;50.00;;;;;;5084387;28;20447;-37
2021/09/25 00:49:19;;;;;;;1.50;1.40;;;28.00;45.90;;;;;;5085580;28;20526;-39
2021/09/25 00:51:51;;;;;;;1.73;1.63;;;28.00;46.80;;;;;;5081339;28;20447;-37
2021/09/25 00:54:22;;;;;;;1.67;1.57;;;27.90;48.30;;;;;;5080806;28;20872;-37
2021/09/25 00:56:53;;;;;;;1.93;1.40;;;27.70;49.20;;;;;;5073583;28;20447;-38
2021/09/25 00:59:24;;;;;;;1.90;1.43;;;27.60;48.70;;;;;;5085054;28;20452;-38
2021/09/25 01:01:58;;;;;;;2.60;1.73;;;27.40;50.50;;;;;;5077577;28;20491;-39
2021/09/25 01:04:29;;;;;;;1.83;1.50;;;27.30;50.40;;;;;;5084901;28;20474;-37
2021/09/25 01:07:00;;;;;;;1.50;1.40;;;27.10;52.60;;;;;;5069042;28;20486;-38
2021/09/25 01:09:31;;;;;;;1.83;1.53;;;26.90;53.40;;;;;;5085010;28;20475;-38
2021/09/25 01:12:02;;;;;;;2.00;1.80;;;26.80;52.60;;;;;;5074185;28;20444;-39
2021/09/25 01:14:33;;;;;;;1.73;1.63;;;26.60;50.50;;;;;;5071634;28;20877;-38
2021/09/25 01:17:12;;;;;;;3.90;1.93;;;26.50;51.30;;;;;;5084108;28;20929;-39
2021/09/25 01:19:44;;;;;;;2.30;2.10;;;26.30;49.80;;;;;;5085258;28;20464;-40
2021/09/25 01:22:17;;;;;;;2.13;1.97;;;26.20;53.60;;;;;;5080935;28;20501;-41
2021/09/25 01:24:48;;;;;;;1.90;1.80;;;26.10;52.20;;;;;;5071980;28;20446;-38
2021/09/25 01:27:19;;;;;;;2.20;2.10;;;26.00;55.60;;;;;;5066519;28;20457;-38
2021/09/25 01:29:50;;;;;;;3.33;1.90;;;25.90;55.20;;;;;;5064506;28;20456;-38
2021/09/25 01:32:21;;;;;;;2.40;2.20;;;25.80;53.90;;;;;;5063565;28;20453;-38
2021/09/25 01:34:52;;;;;;;3.83;2.00;;;25.60;54.90;;;;;;5065153;28;20512;-38
2021/09/25 01:37:25;;;;;;;2.23;2.03;;;25.50;55.90;;;;;;5064415;28;20483;-38
2021/09/25 01:39:56;;;;;;;3.20;1.90;;;25.40;57.60;;;;;;5076747;28;20452;-39
2021/09/25 01:42:27;;;;;;;2.10;2.00;;;25.20;56.90;;;;;;5072656;28;20444;-38
2021/09/25 01:44:58;;;;;;;2.73;2.50;;;25.20;57.40;;;;;;5077734;28;20443;-38
2021/09/25 01:47:29;;;;;;;2.50;2.30;;;25.00;56.40;;;;;;5083317;28;20430;-38
2021/09/25 01:50:03;;;;;;;2.20;2.10;;;24.90;56.00;;;;;;5083859;28;20451;-38
2021/09/25 01:52:35;;;;;;;2.07;1.87;;;24.80;58.00;;;;;;5084390;28;20492;-39
2021/09/25 01:55:07;;;;;;;2.60;2.40;;;24.70;57.00;;;;;;5082891;28;20455;-38
2021/09/25 01:57:39;;;;;;;3.87;2.93;;;24.50;58.80;;;;;;5080030;28;20456;-38
2021/09/25 02:00:11;;;;;;;3.30;3.10;;;24.40;56.50;;;;;;5063990;28;20452;-38
2021/09/25 02:02:45;;;;;;;2.63;2.43;;;24.20;56.60;;;;;;5067338;28;20511;-38
2021/09/25 02:05:17;;;;;;;4.00;3.60;;;24.00;57.40;;;;;;5064377;28;20457;-38
2021/09/25 02:07:50;;;;;;;3.23;2.83;;;23.90;58.40;;;;;;5064079;28;20448;-38
2021/09/25 02:10:21;;;;;;;3.77;2.70;;;23.80;58.50;;;;;;5063889;28;20445;-39
2021/09/25 02:12:52;;;;;;;2.50;2.30;;;23.70;60.30;;;;;;5063798;28;20451;-38
2021/09/25 02:15:23;;;;;;;2.27;2.17;;;23.50;63.20;;;;;;5064705;28;20452;-38
2021/09/25 02:17:54;;;;;;;2.30;2.00;;;23.30;62.70;;;;;;5063119;28;20440;-38
2021/09/25 02:20:25;;;;;;;3.53;2.10;;;23.20;63.10;;;;;;5063884;28;20459;-37
2021/09/25 02:22:57;;;;;;;2.37;2.20;;;23.10;60.90;;;;;;5064716;28;20496;-38
2021/09/25 02:25:28;;;;;;;2.00;1.90;;;22.90;62.80;;;;;;5064306;28;20483;-38
2021/09/25 02:27:59;;;;;;;3.13;2.50;;;22.80;63.20;;;;;;5076388;28;20447;-38
2021/09/25 02:30:30;;;;;;;2.90;2.50;;;22.70;63.70;;;;;;5064185;28;20449;-38
2021/09/25 02:33:01;;;;;;;3.23;2.50;;;22.60;65.30;;;;;;5063097;28;20429;-39
2021/09/25 02:35:32;;;;;;;2.93;2.60;;;22.60;63.80;;;;;;5064144;28;20452;-38
2021/09/25 02:38:05;;;;;;;3.43;3.13;;;22.50;65.40;;;;;;5063370;28;20444;-38
2021/09/25 02:40:37;;;;;;;2.47;2.27;;;22.40;72.30;;;;;;5080660;28;20456;-39
2021/09/25 02:43:08;;;;;;;3.20;2.90;;;22.20;74.70;;;;;;5081362;28;20806;-38
2021/09/25 02:45:39;;;;;;;3.07;2.77;;;22.00;75.20;;;;;;5068284;28;20475;-38
2021/09/25 02:48:10;;;;;;;2.87;2.67;;;21.90;77.60;;;;;;5082813;28;20429;-39
2021/09/25 02:50:41;;;;;;;4.50;3.67;;;21.80;79.30;;;;;;5068863;28;20475;-38
2021/09/25 02:53:14;;;;;;;6.13;3.50;;;21.70;75.40;;;;;;5083070;28;20436;-37
2021/09/25 02:55:45;;;;;;;3.70;3.40;;;21.60;78.70;;;;;;5083282;28;20448;-38
2021/09/25 02:58:16;;;;;;;4.93;3.90;;;21.50;75.70;;;;;;5071918;28;20513;-38
2021/09/25 03:00:47;;;;;;;4.57;3.60;;;21.40;78.50;;;;;;5080933;28;20452;-38
2021/09/25 03:03:19;;;;;;;3.97;3.53;;;21.30;85.00;;;;;;5073250;28;20448;-39
2021/09/25 03:05:50;;;;;;;3.67;3.37;;;21.30;85.40;;;;;;5072456;28;20444;-40
2021/09/25 03:08:23;;;;;;;5.40;3.80;;;21.20;84.40;;;;;;5070887;28;20558;-39
2021/09/25 03:10:54;;;;;;;5.30;3.83;;;21.10;84.00;;;;;;5079470;28;20456;-39
2021/09/25 03:13:25;;;;;;;4.60;4.20;;;21.00;87.40;;;;;;5062332;28;20452;-38
2021/09/25 03:15:56;;;;;;;5.00;4.50;;;20.80;90.10;;;;;;5077992;28;20451;-39
2021/09/25 03:18:27;;;;;;;3.80;3.50;;;20.80;85.80;;;;;;5081581;28;20456;-39
2021/09/25 03:20:58;;;;;;;5.10;4.57;;;20.80;91.60;;;;;;5073150;28;20484;-38
2021/09/25 03:23:30;;;;;;;5.20;4.70;;;20.70;87.30;;;;;;5073477;28;20480;-40
2021/09/25 03:26:01;;;;;;;5.67;5.17;;;20.60;90.70;;;;;;5076027;28;20430;-38
2021/09/25 03:28:32;;;;;;;5.20;4.70;;;20.50;90.90;;;;;;5081811;28;20482;-39
2021/09/25 03:31:03;;;;;;;8.07;5.03;;;20.40;94.00;;;;;;5077320;28;22157;-40
2021/09/25 03:33:34;;;;;;;5.80;5.30;;;20.30;93.30;;;;;;5069151;28;20437;-39
2021/09/25 03:36:06;;;;;;;6.90;5.37;;;20.20;94.90;;;;;;5081885;28;20462;-39
2021/09/25 03:38:39;;;;;;;7.70;5.40;;;20.20;98.00;;;;;;5078278;28;20740;-38
2021/09/25 03:41:10;;;;;;;5.93;5.33;;;20.10;96.80;;;;;;5072376;28;20434;-38
2021/09/25 03:43:41;;;;;;;6.03;5.43;;;20.00;97.40;;;;;;5061922;28;20472;-39
2021/09/25 03:46:12;;;;;;;6.50;6.00;;;19.90;98.10;;;;;;5075032;28;20475;-40
2021/09/25 03:48:43;;;;;;;6.30;5.70;;;19.90;97.60;;;;;;5081952;28;20437;-38
2021/09/25 03:51:14;;;;;;;6.90;6.10;;;19.80;99.70;;;;;;5076230;28;20454;-39
2021/09/25 03:53:46;;;;;;;6.77;6.27;;;19.70;99.90;;;;;;5064546;28;20778;-38
2021/09/25 03:56:17;;;;;;;6.67;6.17;;;19.80;99.90;;;;;;5065083;28;20559;-39
2021/09/25 03:58:49;;;;;;;9.97;7.10;;;19.70;99.90;;;;;;5069221;28;20455;-38
2021/09/25 04:01:22;;;;;;;7.33;6.60;;;19.70;99.90;;;;;;4997776;28;1967708;-38
2021/09/25 04:03:53;;;;;;;8.60;7.80;;;19.60;99.90;;;;;;5067021;28;20205;-39
2021/09/25 04:06:26;;;;;;;9.00;8.10;;;19.50;99.90;;;;;;5067047;28;20444;-39
2021/09/25 04:08:59;;;;;;;8.47;7.57;;;19.50;99.90;;;;;;5075064;28;20451;-41
2021/09/25 04:11:30;;;;;;;8.47;7.67;;;19.30;99.90;;;;;;5079476;28;20423;-39
2021/09/25 04:14:01;;;;;;;9.20;8.30;;;19.30;99.90;;;;;;5080174;28;20451;-40
2021/09/25 04:16:32;;;;;;;10.03;9.03;;;19.30;99.90;;;;;;5065172;28;20419;-39
2021/09/25 04:19:03;;;;;;;10.80;9.57;;;19.20;99.90;;;;;;5066685;28;20785;-39
2021/09/25 04:21:34;;;;;;;10.70;9.70;;;19.10;99.90;;;;;;5065400;28;20452;-39
2021/09/25 04:24:07;;;;;;;12.67;11.00;;;19.10;99.90;;;;;;5066254;28;20472;-40
2021/09/25 04:26:38;;;;;;;11.83;10.73;;;19.10;99.90;;;;;;5072863;28;20433;-38
2021/09/25 04:29:09;;;;;;;11.40;10.30;;;19.10;99.90;;;;;;5074041;28;20454;-39
2021/09/25 04:31:40;;;;;;;11.80;10.70;;;19.00;99.90;;;;;;5079642;28;20447;-40
2021/09/25 04:34:12;;;;;;;12.10;11.00;;;19.00;99.90;;;;;;5079648;28;20501;-39
2021/09/25 04:36:44;;;;;;;11.20;10.20;;;19.00;99.90;;;;;;5080562;28;20541;-39
2021/09/25 04:39:16;;;;;;;11.17;10.07;;;19.00;99.90;;;;;;5077493;28;20767;-38
2021/09/25 04:41:47;;;;;;;10.57;9.47;;;18.90;99.90;;;;;;5081478;28;20451;-38
2021/09/25 04:44:19;;;;;;;10.27;9.30;;;18.90;99.90;;;;;;5084864;28;20967;-38
2021/09/25 04:46:50;;;;;;;10.33;9.43;;;18.90;99.90;;;;;;5084434;28;20444;-40
2021/09/25 04:49:22;;;;;;;8.97;8.10;;;18.80;99.90;;;;;;5084241;28;20435;-40
2021/09/25 04:51:53;;;;;;;9.00;8.20;;;18.80;99.90;;;;;;5073402;28;20430;-39
2021/09/25 04:54:25;;;;;;;8.47;7.77;;;18.80;99.90;;;;;;5085558;28;20447;-41
2021/09/25 04:56:56;;;;;;;9.53;8.70;;;18.60;99.90;;;;;;5068276;28;20443;-39
2021/09/25 04:59:27;;;;;;;10.03;9.03;;;18.60;99.90;;;;;;5070850;28;20439;-38
2021/09/25 05:01:59;;;;;;;8.70;7.93;;;18.60;99.90;;;;;;5084066;28;20478;-40
2021/09/25 05:04:31;;;;;;;8.67;7.77;;;18.50;99.90;;;;;;5080903;28;20466;-38
2021/09/25 05:07:02;;;;;;;8.77;7.97;;;18.50;99.90;;;;;;5077902;28;20482;-38
2021/09/25 05:09:35;;;;;;;10.57;7.97;;;18.50;99.90;;;;;;5068515;28;20458;-38
2021/09/25 05:12:06;;;;;;;8.23;7.53;;;18.50;99.90;;;;;;5068963;28;20479;-40
2021/09/25 05:14:38;;;;;;;9.70;8.90;;;18.40;99.90;;;;;;5073683;28;20410;-38
2021/09/25 05:17:10;;;;;;;8.33;7.53;;;18.40;99.90;;;;;;5065091;28;20430;-39
2021/09/25 05:19:41;;;;;;;8.10;7.40;;;18.30;99.90;;;;;;5066930;28;20452;-43
2021/09/25 05:22:12;;;;;;;6.83;6.23;;;18.30;99.90;;;;;;5064684;28;20443;-39
2021/09/25 05:24:45;;;;;;;7.60;7.00;;;18.20;99.90;;;;;;5065355;28;20470;-40
2021/09/25 05:27:16;;;;;;;7.63;6.97;;;18.20;99.90;;;;;;5069626;28;20452;-38
2021/09/25 05:29:47;;;;;;;7.30;6.60;;;18.10;99.90;;;;;;5076714;28;20450;-39
2021/09/25 05:32:18;;;;;;;6.67;6.17;;;18.10;99.90;;;;;;5075766;28;20416;-39
2021/09/25 05:34:49;;;;;;;6.57;6.07;;;18.00;99.90;;;;;;5065565;28;20429;-39
2021/09/25 05:37:20;;;;;;;7.43;6.83;;;18.00;99.90;;;;;;5075998;28;20477;-41
2021/09/25 05:39:54;;;;;;;6.70;6.10;;;18.00;99.90;;;;;;5083091;28;20456;-38
2021/09/25 05:42:27;;;;;;;7.87;7.10;;;17.80;99.90;;;;;;5083851;28;20786;-38
2021/09/25 05:44:58;;;;;;;7.20;6.60;;;17.70;99.90;;;;;;5073923;28;20455;-38
2021/09/25 05:47:29;;;;;;;7.33;6.70;;;17.70;99.90;;;;;;5070983;28;20464;-39
2021/09/25 05:50:00;;;;;;;6.97;6.37;;;17.70;99.90;;;;;;5085039;28;20518;-39
2021/09/25 05:52:31;;;;;;;7.60;6.80;;;17.70;99.90;;;;;;5067712;28;20439;-39
2021/09/25 05:55:04;;;;;;;8.97;8.03;;;17.60;99.90;;;;;;5064770;28;20418;-38
2021/09/25 05:57:35;;;;;;;8.80;6.77;;;17.60;99.90;;;;;;5064444;28;20454;-44
2021/09/25 06:00:08;;;;;;;7.27;6.67;;;17.60;99.90;;;;;;5074433;28;20516;-40
2021/09/25 06:02:40;;;;;;;8.10;7.33;;;17.40;99.90;;;;;;5064081;28;20512;-39
2021/09/25 06:05:12;;;;;;;9.90;8.70;;;17.40;99.90;;;;;;5065852;28;20444;-38
2021/09/25 06:07:43;;;;;;;8.50;7.70;;;17.30;99.90;;;;;;5063934;28;20449;-39
2021/09/25 06:10:16;;;;;;;8.13;7.43;;;17.30;99.90;;;;;;5077137;28;20894;-39
2021/09/25 06:12:47;;;;;;;8.93;8.23;;;17.20;99.90;;;;;;5072036;28;20490;-40
2021/09/25 06:15:18;;;;;;;8.83;8.03;;;17.20;99.90;;;;;;5076898;28;20435;-37
2021/09/25 06:17:49;;;;;;;10.13;9.23;;;17.20;99.90;;;;;;5074842;28;20437;-37
2021/09/25 06:20:20;;;;;;;12.90;9.47;;;17.10;99.90;;;;;;5063939;28;20487;-37
2021/09/25 06:22:51;;;;;;;11.53;10.37;;;17.00;99.90;;;;;;5064571;28;20921;-37
2021/09/25 06:25:24;;;;;;;12.13;10.93;;;17.00;99.90;;;;;;5065284;28;20823;-38
2021/09/25 06:27:55;;;;;;;11.63;10.53;;;17.00;99.90;;;;;;5083633;28;20439;-39
2021/09/25 06:30:26;;;;;;;11.40;10.30;;;17.00;99.90;;;;;;5080425;28;20901;-38
2021/09/25 06:32:59;;;;;;;11.20;10.10;;;16.90;99.90;;;;;;5062976;28;20484;-39
2021/09/25 06:35:30;;;;;;;14.50;11.00;;;16.90;99.90;;;;;;5063809;28;20456;-38
2021/09/25 06:38:01;;;;;;;11.97;10.67;;;16.80;99.90;;;;;;5068051;28;20472;-38
2021/09/25 06:40:34;;;;;;;10.83;9.70;;;16.80;99.90;;;;;;5080223;28;20506;-40
2021/09/25 06:43:05;;;;;;;10.93;9.90;;;16.80;99.90;;;;;;5082974;28;20455;-39
2021/09/25 06:45:38;;;;;;;11.17;10.17;;;16.70;99.90;;;;;;5072308;28;20438;-40
2021/09/25 06:48:10;;;;;;;12.70;11.50;;;16.60;99.90;;;;;;5063267;28;20452;-38
2021/09/25 06:50:41;;;;;;;12.80;11.30;;;16.60;99.90;;;;;;5063411;28;20483;-38
2021/09/25 06:53:12;;;;;;;13.60;12.37;;;16.60;99.90;;;;;;5062891;28;20449;-38
2021/09/25 06:55:45;;;;;;;14.03;12.63;;;16.50;99.90;;;;;;5063487;28;20487;-38
2021/09/25 06:58:16;;;;;;;12.83;11.63;;;16.40;99.90;;;;;;5067652;28;20463;-38
2021/09/25 07:00:47;;;;;;;13.13;11.27;;;16.50;99.90;;;;;;5065405;28;20510;-39
2021/09/25 07:03:19;;;;;;;14.57;12.23;;;16.40;99.90;;;;;;5062372;28;20556;-41
2021/09/25 07:05:50;;;;;;;16.37;11.90;;;16.50;99.90;;;;;;5072138;28;20422;-38
2021/09/25 07:08:21;;;;;;;12.47;11.40;;;16.50;99.90;;;;;;5076588;28;20604;-38
2021/09/25 07:10:54;;;;;;;12.00;10.90;;;16.50;99.90;;;;;;5066444;28;20452;-38
2021/09/25 07:13:25;;;;;;;12.80;11.40;;;16.40;99.90;;;;;;5062990;28;20475;-39
2021/09/25 07:15:56;;;;;;;12.10;10.97;;;16.30;99.90;;;;;;5079985;28;20473;-38
2021/09/25 07:18:27;;;;;;;12.33;11.03;;;16.30;99.90;;;;;;5079429;28;20443;-38
2021/09/25 07:20:58;;;;;;;12.80;11.60;;;16.30;99.90;;;;;;5080998;28;20808;-38
2021/09/25 07:23:28;;;;;;;13.80;12.40;;;16.30;99.90;;;;;;5082671;28;20486;-38
2021/09/25 07:26:01;;;;;;;14.43;12.93;;;16.20;99.90;;;;;;5082128;28;20493;-38
2021/09/25 07:28:33;;;;;;;12.57;11.27;;;16.10;99.90;;;;;;5082966;28;20443;-39
2021/09/25 07:31:06;;;;;;;13.33;12.03;;;16.10;99.90;;;;;;5068665;28;20432;-38
2021/09/25 07:33:37;;;;;;;14.20;12.70;;;16.00;99.90;;;;;;5077590;28;20531;-38
2021/09/25 07:36:08;;;;;;;13.93;12.53;;;16.00;99.90;;;;;;5082864;28;20449;-38
2021/09/25 07:38:39;;;;;;;14.50;12.47;;;16.10;99.90;;;;;;5081938;28;20483;-38
2021/09/25 07:41:12;;;;;;;12.90;11.60;;;16.00;99.90;;;;;;5082142;28;20506;-40
2021/09/25 07:43:43;;;;;;;12.17;10.97;;;15.90;99.90;;;;;;5081390;28;20491;-38
2021/09/25 07:46:14;;;;;;;11.27;10.07;;;15.90;99.90;;;;;;5074074;28;20445;-38
2021/09/25 07:48:46;;;;;;;13.40;12.00;;;15.80;99.90;;;;;;5081536;28;20668;-39
2021/09/25 07:51:17;;;;;;;12.70;11.40;;;15.80;99.90;;;;;;5079292;28;20434;-38
2021/09/25 07:53:47;;;;;;;13.43;12.03;;;15.80;99.90;;;;;;5074225;28;20449;-38
2021/09/25 07:56:20;;;;;;;12.33;11.13;;;15.80;99.90;;;;;;5064559;28;21261;-38
2021/09/25 07:58:51;;;;;;;12.07;11.07;;;15.80;99.90;;;;;;5067910;28;20444;-38
2021/09/25 08:01:23;;;;;;;11.97;10.27;;;15.80;99.90;;;;;;5074286;28;20511;-40
2021/09/25 08:03:54;;;;;;;12.23;11.07;;;15.80;99.90;;;;;;5080853;28;20428;-41
2021/09/25 08:06:25;;;;;;;11.60;10.50;;;15.70;99.90;;;;;;5081847;28;20907;-40
2021/09/25 08:08:57;;;;;;;11.40;10.27;;;15.60;99.90;;;;;;5082610;28;20439;-40
2021/09/25 08:11:29;;;;;;;11.27;10.27;;;15.70;99.90;;;;;;5075877;28;20456;-40
2021/09/25 08:14:00;;;;;;;10.50;9.60;;;15.60;99.90;;;;;;5063856;28;20441;-43
2021/09/25 08:16:31;;;;;;;11.00;9.33;;;15.60;99.90;;;;;;5074484;28;21304;-39
2021/09/25 08:19:02;;;;;;;10.17;9.27;;;15.60;99.90;;;;;;5081345;28;20455;-40
2021/09/25 08:21:33;;;;;;;12.33;9.27;;;15.50;99.90;;;;;;5061988;28;20868;-43
2021/09/25 08:24:05;;;;;;;10.30;9.40;;;15.50;99.90;;;;;;5062382;28;20966;-39
2021/09/25 08:26:37;;;;;;;9.60;8.70;;;15.50;99.90;;;;;;5061659;28;20444;-40
2021/09/25 08:29:08;;;;;;;11.50;9.53;;;15.40;99.90;;;;;;5073616;28;20438;-39
2021/09/25 08:31:39;;;;;;;10.43;9.30;;;15.30;99.90;;;;;;5061282;28;20468;-39
2021/09/25 08:34:10;;;;;;;11.10;10.10;;;15.30;99.90;;;;;;5063300;28;20482;-39
2021/09/25 08:36:41;;;;;;;10.40;9.40;;;15.20;99.90;;;;;;5062677;28;20482;-37
2021/09/25 08:39:12;;;;;;;11.70;10.60;;;15.20;99.90;;;;;;5079353;28;20479;-38
2021/09/25 08:41:45;;;;;;;10.97;9.97;;;15.20;99.90;;;;;;5077646;28;20840;-38
2021/09/25 08:44:16;;;;;;;10.50;9.60;;;15.20;99.90;;;;;;5084113;28;20493;-38
2021/09/25 08:46:48;;;;;;;12.07;10.87;;;15.20;99.90;;;;;;5084632;28;20439;-39
2021/09/25 08:49:19;;;;;;;10.20;9.30;;;15.20;99.90;;;;;;5085772;28;20478;-38
2021/09/25 08:51:50;;;;;;;11.63;10.13;;;15.10;99.90;;;;;;5074487;28;20936;-38
2021/09/25 08:54:21;;;;;;;10.13;9.07;;;15.10;99.90;;;;;;5065583;28;20487;-38
2021/09/25 08:56:53;;;;;;;10.77;8.70;;;15.10;99.90;;;;;;5064961;28;20475;-38
2021/09/25 08:59:24;;;;;;;11.30;10.20;;;15.10;99.90;;;;;;5070249;28;20511;-37
2021/09/25 09:01:57;;;;;;;11.77;9.90;;;15.00;99.90;;;;;;5071671;28;20499;-38
2021/09/25 09:04:43;;;;;;;11.43;10.23;;;14.90;99.90;;;;;;5066670;28;20454;-38
2021/09/25 09:07:19;;;;;;;10.63;9.60;;;14.90;99.90;;;;;;5082948;28;20566;-38
2021/09/25 09:09:54;;;;;;;10.80;9.80;;;14.90;99.90;;;;;;5066544;28;20462;-39
2021/09/25 09:12:29;;;;;;;12.23;9.97;;;14.90;99.90;;;;;;5064635;28;20480;-38
2021/09/25 09:15:00;;;;;;;11.10;10.00;;;14.90;99.90;;;;;;5067276;28;20448;-40
2021/09/25 09:17:35;;;;;;;11.17;10.13;;;14.90;99.90;;;;;;5063944;28;20432;-38
2021/09/25 09:20:10;;;;;;;9.67;8.77;;;14.80;99.90;;;;;;5065470;28;20436;-38
2021/09/25 09:22:41;;;;;;;11.00;9.30;;;14.90;99.90;;;;;;5064703;28;20547;-38
2021/09/25 09:25:12;;;;;;;10.30;9.40;;;14.80;99.90;;;;;;5064505;28;20476;-38
2021/09/25 09:27:48;;;;;;;11.23;9.27;;;14.80;99.90;;;;;;5078463;28;20522;-40
2021/09/25 09:30:19;;;;;;;9.60;8.40;;;14.70;99.90;;;;;;5084909;28;20454;-38
2021/09/25 09:32:50;;;;;;;9.47;8.57;;;14.70;99.90;;;;;;5073045;28;20634;-40
2021/09/25 09:35:21;;;;;;;12.13;9.83;;;14.70;99.90;;;;;;5065705;28;20468;-38
2021/09/25 09:37:58;;;;;;;10.73;9.67;;;14.70;99.90;;;;;;5064357;28;20472;-38
2021/09/25 09:40:29;;;;;;;10.47;9.47;;;14.70;99.90;;;;;;5079985;28;20447;-42
2021/09/25 09:43:05;;;;;;;11.50;10.30;;;14.70;99.90;;;;;;5074591;28;20487;-38
2021/09/25 09:45:39;;;;;;;10.70;9.60;;;14.60;99.90;;;;;;5065062;28;20529;-39
2021/09/25 09:48:11;;;;;;;9.87;8.97;;;14.60;99.90;;;;;;5063991;28;20428;-37
2021/09/25 09:50:42;;;;;;;10.80;9.60;;;14.60;99.90;;;;;;5063819;28;21013;-38
2021/09/25 09:53:14;;;;;;;9.70;8.80;;;14.50;99.90;;;;;;5064859;28;20448;-38
2021/09/25 09:55:47;;;;;;;11.03;9.93;;;14.50;99.90;;;;;;5065373;28;20549;-37
2021/09/25 09:58:20;;;;;;;11.77;9.13;;;14.40;99.90;;;;;;5064624;28;20560;-38
2021/09/25 10:00:51;;;;;;;10.30;9.20;;;14.40;99.90;;;;;;5073691;28;20451;-38
2021/09/25 10:03:24;;;;;;;10.07;9.07;;;14.40;99.90;;;;;;5074189;28;20686;-38
2021/09/25 10:05:55;;;;;;;10.37;9.43;;;14.40;99.90;;;;;;5084313;28;20414;-38
2021/09/25 10:08:26;;;;;;;9.80;8.57;;;14.40;99.90;;;;;;5084422;28;20458;-38
2021/09/25 10:10:58;;;;;;;11.07;9.30;;;14.30;99.90;;;;;;5080180;28;20460;-38
2021/09/25 10:13:31;;;;;;;9.67;8.57;;;14.40;99.90;;;;;;5067860;28;20458;-39
2021/09/25 10:16:02;;;;;;;9.67;8.77;;;14.40;99.90;;;;;;5083061;28;20455;-39
2021/09/25 10:18:33;;;;;;;9.93;8.87;;;14.30;99.90;;;;;;5083945;28;20452;-38
2021/09/25 10:21:05;;;;;;;9.70;8.80;;;14.30;99.90;;;;;;5084676;28;20463;-39
2021/09/25 10:23:38;;;;;;;9.63;8.83;;;14.30;99.90;;;;;;5084412;28;20490;-38
2021/09/25 10:26:09;;;;;;;10.90;9.80;;;14.20;99.90;;;;;;5079956;28;20483;-38
2021/09/25 10:28:41;;;;;;;10.10;9.20;;;14.30;99.90;;;;;;5071353;28;20448;-38
2021/09/25 10:31:19;;;;;;;11.13;9.80;;;14.10;99.90;;;;;;5083252;28;20456;-38
2021/09/25 10:34:12;;;;;;;10.23;9.17;;;14.10;99.90;;;;;;5084201;28;20462;-38
2021/09/25 10:36:49;;;;;;;11.20;10.07;;;14.10;99.90;;;;;;5072867;28;20447;-38
2021/09/25 10:39:30;;;;;;;11.30;10.10;;;14.10;99.90;;;;;;5078578;28;20447;-38
2021/09/25 10:42:09;;;;;;;10.70;9.60;;;14.00;99.90;;;;;;5063529;28;20924;-38
2021/09/25 10:45:02;;;;;;;10.33;9.43;;;14.00;99.90;;;;;;5063943;28;20583;-38
2021/09/25 10:47:36;;;;;;;10.50;9.40;;;14.00;99.90;;;;;;5078141;28;20448;-38
2021/09/25 10:50:14;;;;;;;11.60;10.40;;;13.90;99.90;;;;;;5083446;28;20442;-38
2021/09/25 10:52:52;;;;;;;10.20;9.20;;;13.90;99.90;;;;;;5083460;28;20447;-37
2021/09/25 10:55:28;;;;;;;10.30;8.87;;;13.90;99.90;;;;;;5083518;28;20443;-38
2021/09/25 10:58:18;;;;;;;9.67;8.70;;;13.80;99.90;;;;;;5069235;28;20444;-38
2021/09/25 11:00:55;;;;;;;9.33;8.43;;;13.90;99.90;;;;;;5063142;28;20488;-40
2021/09/25 11:06:55;;;;;;;12.23;10.10;;;13.90;99.90;;;;;;5065757;28;20448;-38
2021/09/25 11:09:31;;;;;;;10.07;9.07;;;13.90;99.90;;;;;;5063055;28;20470;-39
2021/09/25 11:12:08;;;;;;;9.63;8.63;;;13.80;99.90;;;;;;5062645;28;20487;-39
2021/09/25 11:14:45;;;;;;;10.40;9.30;;;13.80;99.90;;;;;;5077678;28;20455;-38
2021/09/25 11:17:36;;;;;;;9.50;8.60;;;13.80;99.90;;;;;;5067675;28;20488;-38
2021/09/25 11:20:09;;;;;;;11.60;10.03;;;13.80;99.90;;;;;;5067270;28;20531;-39
2021/09/25 11:22:44;;;;;;;9.17;7.97;;;13.70;99.90;;;;;;5071248;28;20440;-39
2021/09/25 11:25:18;;;;;;;10.40;8.80;;;13.70;99.90;;;;;;5083156;28;20480;-38
2021/09/25 11:27:51;;;;;;;10.00;9.00;;;13.70;99.90;;;;;;5072971;28;20468;-38
2021/09/25 11:30:24;;;;;;;9.70;8.70;;;13.60;99.90;;;;;;5078611;28;20470;-38
2021/09/25 11:32:57;;;;;;;9.93;9.03;;;13.60;99.90;;;;;;5081827;28;20475;-38
2021/09/25 11:35:31;;;;;;;9.90;8.90;;;13.60;99.90;;;;;;5071907;28;20476;-38
2021/09/25 11:38:05;;;;;;;10.10;9.20;;;13.50;99.90;;;;;;5062540;28;20472;-42
2021/09/25 11:40:39;;;;;;;10.13;9.13;;;13.40;99.90;;;;;;5078413;28;20447;-38
2021/09/25 11:43:12;;;;;;;9.73;8.80;;;13.40;99.90;;;;;;5076608;28;20513;-38
2021/09/25 11:45:45;;;;;;;10.10;9.10;;;13.50;99.90;;;;;;5063519;28;20453;-39
2021/09/25 11:48:19;;;;;;;10.43;8.80;;;13.50;99.90;;;;;;5062077;28;20865;-39
2021/09/25 11:50:53;;;;;;;9.67;8.67;;;13.50;99.90;;;;;;5062408;28;20771;-40
2021/09/25 11:53:27;;;;;;;9.60;8.70;;;13.50;99.90;;;;;;5081735;28;20510;-38
2021/09/25 11:56:01;;;;;;;11.03;9.97;;;13.50;99.90;;;;;;5082157;28;20499;-38
2021/09/25 11:58:32;;;;;;;12.60;10.07;;;13.40;99.90;;;;;;5080257;28;20464;-39
2021/09/25 12:01:04;;;;;;;10.87;9.73;;;13.40;99.90;;;;;;5079510;28;20451;-38
2021/09/25 12:03:39;;;;;;;10.57;9.47;;;13.40;99.90;;;;;;5081572;28;20974;-39
2021/09/25 12:06:11;;;;;;;9.97;8.83;;;13.40;99.90;;;;;;5082229;28;20451;-39
2021/09/25 12:08:42;;;;;;;11.13;10.17;;;13.40;99.90;;;;;;5082444;28;20493;-38
2021/09/25 12:11:13;;;;;;;10.20;9.20;;;13.40;99.90;;;;;;5078338;28;20440;-38
2021/09/25 12:13:45;;;;;;;9.80;8.90;;;13.30;99.90;;;;;;5067463;28;20460;-38
2021/09/25 12:16:18;;;;;;;11.77;9.70;;;13.30;99.90;;;;;;5084883;28;20458;-38
2021/09/25 12:18:51;;;;;;;10.00;8.87;;;13.20;99.90;;;;;;5068330;28;20531;-38
2021/09/25 12:21:23;;;;;;;9.87;8.87;;;13.20;99.90;;;;;;5065860;28;20505;-39
2021/09/25 12:24:07;;;;;;;8.97;8.27;;;13.10;99.90;;;;;;5067217;28;20491;-38
2021/09/25 12:26:43;;;;;;;9.77;8.77;;;13.10;99.90;;;;;;5065956;28;20480;-38
2021/09/25 12:29:16;;;;;;;10.33;9.03;;;13.10;99.90;;;;;;5073025;28;20470;-38
2021/09/25 12:31:47;;;;;;;11.07;8.80;;;13.10;99.90;;;;;;5065892;28;20444;-38
2021/09/25 12:34:21;;;;;;;10.73;9.83;;;13.00;99.90;;;;;;5066145;28;20506;-38
2021/09/25 12:36:53;;;;;;;10.63;9.37;;;13.00;99.90;;;;;;5076513;28;20468;-38
2021/09/25 12:39:27;;;;;;;11.50;9.93;;;13.10;99.90;;;;;;5073466;28;20462;-39
2021/09/25 12:42:00;;;;;;;10.30;9.33;;;13.10;99.90;;;;;;5083422;28;20486;-38
2021/09/25 12:44:34;;;;;;;12.13;9.80;;;13.00;99.90;;;;;;5086062;28;20542;-38
2021/09/25 12:47:06;;;;;;;10.20;9.30;;;13.00;99.90;;;;;;5085081;28;20442;-38
2021/09/25 12:49:39;;;;;;;10.43;8.47;;;13.00;99.90;;;;;;5085559;28;20558;-38
2021/09/25 12:52:17;;;;;;;10.83;9.57;;;13.00;99.90;;;;;;5074207;28;20463;-38
2021/09/25 12:54:50;;;;;;;12.77;10.60;;;13.00;99.90;;;;;;5067772;28;20464;-38
2021/09/25 12:57:22;;;;;;;11.27;10.17;;;13.00;99.90;;;;;;5085022;28;20453;-38
2021/09/25 13:00:00;;;;;;;11.10;9.93;;;13.00;99.90;;;;;;5075375;28;20472;-38
2021/09/25 13:02:32;;;;;;;11.57;10.27;;;13.00;99.90;;;;;;5064523;28;20476;-40
2021/09/25 13:05:07;;;;;;;11.60;10.43;;;13.00;99.90;;;;;;5080052;28;20548;-38
2021/09/25 13:07:40;;;;;;;14.03;12.17;;;13.00;99.90;;;;;;5083312;28;20488;-38
2021/09/25 13:10:17;;;;;;;13.20;11.33;;;12.90;99.90;;;;;;5077443;28;20448;-38
2021/09/25 13:12:49;;;;;;;13.50;12.10;;;12.90;99.90;;;;;;5064678;28;20452;-38